createdAt,value
2018-06-27T00:01:23.332Z,15.80
2018-06-27T00:03:51.391Z,15.90
2018-06-27T00:06:19.736Z,16.93
2018-06-27T00:08:47.804Z,16.63
2018-06-27T00:11:15.887Z,16.73
2018-06-27T00:13:43.976Z,15.57
2018-06-27T00:16:12.053Z,14.87
2018-06-27T00:18:40.175Z,13.90
2018-06-27T00:21:08.476Z,14.37
2018-06-27T00:23:36.590Z,16.37
2018-06-27T00:26:04.672Z,16.83
2018-06-27T00:28:32.775Z,17.50
2018-06-27T00:31:00.848Z,18.37
2018-06-27T00:33:28.883Z,18.17
2018-06-27T00:35:56.931Z,17.13
2018-06-27T00:38:24.987Z,16.47
2018-06-27T00:40:53.031Z,18.27
2018-06-27T00:43:21.077Z,15.37
2018-06-27T00:45:49.153Z,15.93
2018-06-27T00:48:17.224Z,16.67
2018-06-27T00:50:45.354Z,16.50
2018-06-27T00:53:13.427Z,15.53
2018-06-27T00:55:41.565Z,17.47
2018-06-27T00:58:09.676Z,16.23
2018-06-27T01:00:37.731Z,18.03
2018-06-27T01:03:06.106Z,17.87
2018-06-27T01:05:34.123Z,18.50
2018-06-27T01:08:02.167Z,19.37
2018-06-27T01:10:30.238Z,17.63
2018-06-27T01:12:58.271Z,17.77
2018-06-27T01:15:26.323Z,19.23
2018-06-27T01:17:58.080Z,19.53
2018-06-27T01:20:26.683Z,19.90
2018-06-27T01:22:54.733Z,19.27
2018-06-27T01:25:22.758Z,19.67
2018-06-27T01:27:50.814Z,21.10
2018-06-27T01:30:18.895Z,23.37
2018-06-27T01:32:46.919Z,23.07
2018-06-27T01:35:15.192Z,24.97
2018-06-27T01:37:43.467Z,26.33
2018-06-27T01:40:11.492Z,24.63
2018-06-27T01:42:39.526Z,26.50
2018-06-27T01:45:07.563Z,25.03
2018-06-27T01:47:35.687Z,28.73
2018-06-27T01:50:03.745Z,27.93
2018-06-27T01:52:33.131Z,24.67
2018-06-27T01:55:01.205Z,26.30
2018-06-27T01:57:29.497Z,24.20
2018-06-27T01:59:57.556Z,23.53
2018-06-27T02:02:25.647Z,23.10
2018-06-27T02:04:53.693Z,22.53
2018-06-27T02:07:21.736Z,21.47
2018-06-27T02:09:49.774Z,22.20
2018-06-27T02:12:17.835Z,21.47
2018-06-27T02:14:45.904Z,26.40
2018-06-27T02:17:13.960Z,26.57
2018-06-27T02:19:42.075Z,25.87
2018-06-27T02:22:10.188Z,24.40
2018-06-27T02:24:38.288Z,25.50
2018-06-27T02:27:06.372Z,26.80
2018-06-27T02:29:34.409Z,26.60
2018-06-27T02:32:02.456Z,24.10
2018-06-27T02:34:30.529Z,24.93
2018-06-27T02:36:58.577Z,24.27
2018-06-27T02:39:26.633Z,26.67
2018-06-27T02:41:54.675Z,27.00
2018-06-27T02:44:22.735Z,24.93
2018-06-27T02:46:51.172Z,26.20
2018-06-27T02:49:19.225Z,25.03
2018-06-27T02:51:47.274Z,24.33
2018-06-27T02:54:15.628Z,31.33
2018-06-27T02:56:43.700Z,29.37
2018-06-27T02:59:11.800Z,22.87
2018-06-27T03:01:39.893Z,21.40
2018-06-27T03:04:08.104Z,25.80
2018-06-27T03:06:36.180Z,27.30
2018-06-27T03:09:06.116Z,28.90
2018-06-27T03:11:34.175Z,28.20
2018-06-27T03:14:02.294Z,27.13
2018-06-27T03:16:30.342Z,29.37
2018-06-27T03:18:58.471Z,27.43
2018-06-27T03:21:26.640Z,25.77
2018-06-27T03:23:54.880Z,28.20
2018-06-27T03:26:22.939Z,29.37
2018-06-27T03:28:51.088Z,29.57
2018-06-27T03:31:19.661Z,26.20
2018-06-27T03:33:47.761Z,26.10
2018-06-27T03:36:15.836Z,25.07
2018-06-27T03:38:43.936Z,23.13
2018-06-27T03:41:12.039Z,21.10
2018-06-27T03:43:40.173Z,23.97
2018-06-27T03:46:08.313Z,22.07
2018-06-27T03:48:36.857Z,24.17
2018-06-27T03:51:04.917Z,24.70
2018-06-27T03:53:42.262Z,25.67
2018-06-27T03:56:12.495Z,26.77
2018-06-27T03:58:40.663Z,24.80
2018-06-27T04:01:09.980Z,23.80
2018-06-27T04:03:39.070Z,24.43
2018-06-27T04:06:07.545Z,23.30
2018-06-27T04:08:35.612Z,24.77
2018-06-27T04:11:03.644Z,23.93
2018-06-27T04:13:31.811Z,21.43
2018-06-27T04:16:00.133Z,22.63
2018-06-27T04:18:28.274Z,21.40
2018-06-27T04:20:56.360Z,24.73
2018-06-27T04:23:24.423Z,24.00
2018-06-27T04:25:52.508Z,24.53
2018-06-27T04:28:21.035Z,23.77
2018-06-27T04:30:49.288Z,21.63
2018-06-27T04:33:17.453Z,21.37
2018-06-27T04:35:45.545Z,22.23
2018-06-27T04:38:13.619Z,20.60
2018-06-27T04:40:41.723Z,19.37
2018-06-27T04:43:09.836Z,18.17
2018-06-27T04:45:37.922Z,17.53
2018-06-27T04:48:05.976Z,17.50
2018-06-27T04:50:34.029Z,16.13
2018-06-27T04:53:02.067Z,17.27
2018-06-27T04:55:30.132Z,17.05
2018-06-27T04:57:58.177Z,14.90
2018-06-27T05:00:26.219Z,15.68
2018-06-27T05:02:54.416Z,14.80
2018-06-27T05:05:22.439Z,13.78
2018-06-27T05:07:50.513Z,13.13
2018-06-27T05:10:19.109Z,14.93
2018-06-27T05:12:47.153Z,13.95
2018-06-27T05:15:15.188Z,14.05
2018-06-27T05:17:43.333Z,13.90
2018-06-27T05:20:11.588Z,13.53
2018-06-27T05:22:39.639Z,12.33
2018-06-27T05:25:07.746Z,12.85
2018-06-27T05:27:36.220Z,14.28
2018-06-27T05:30:04.580Z,14.00
2018-06-27T05:32:32.951Z,15.05
2018-06-27T05:35:00.927Z,13.48
2018-06-27T05:37:28.961Z,14.00
2018-06-27T05:39:57.028Z,14.60
2018-06-27T05:42:25.075Z,13.43
2018-06-27T05:44:53.285Z,13.70
2018-06-27T05:47:21.322Z,13.38
2018-06-27T05:49:49.444Z,13.20
2018-06-27T05:52:17.507Z,13.90
2018-06-27T05:54:45.603Z,14.45
2018-06-27T05:57:14.028Z,12.78
2018-06-27T05:59:42.112Z,14.78
2018-06-27T06:02:10.281Z,16.05
2018-06-27T06:04:38.628Z,16.60
2018-06-27T06:07:06.693Z,16.97
2018-06-27T06:09:34.735Z,17.25
2018-06-27T06:12:02.783Z,17.92
2018-06-27T06:14:30.816Z,17.55
2018-06-27T06:16:58.847Z,16.30
2018-06-27T06:19:27.447Z,16.12
2018-06-27T06:21:55.502Z,16.25
2018-06-27T06:24:23.556Z,15.68
2018-06-27T06:26:51.587Z,16.07
2018-06-27T06:29:19.644Z,18.77
2018-06-27T06:31:47.708Z,18.07
2018-06-27T06:34:15.790Z,17.27
2018-06-27T06:36:43.908Z,16.65
2018-06-27T06:39:11.988Z,16.25
2018-06-27T06:41:40.131Z,14.90
2018-06-27T06:44:08.908Z,14.38
2018-06-27T06:46:37.060Z,15.43
2018-06-27T06:49:05.095Z,15.40
2018-06-27T06:51:33.156Z,17.92
2018-06-27T06:54:01.226Z,12.60
2018-06-27T06:56:29.325Z,16.05
2018-06-27T06:58:57.350Z,14.98
2018-06-27T07:01:25.380Z,15.08
2018-06-27T07:03:53.431Z,13.43
2018-06-27T07:06:21.500Z,13.55
2018-06-27T07:08:49.559Z,13.03
2018-06-27T07:13:48.268Z,12.50
2018-06-27T07:16:16.337Z,12.73
2018-06-27T07:18:44.500Z,15.28
2018-06-27T07:21:12.630Z,11.75
2018-06-27T07:23:40.725Z,12.35
2018-06-27T07:26:08.860Z,10.70
2018-06-27T07:28:37.032Z,12.15
2018-06-27T07:31:05.000Z,12.00
2018-06-27T07:33:33.027Z,12.10
2018-06-27T07:36:01.393Z,11.05
2018-06-27T07:38:29.349Z,12.13
2018-06-27T07:40:57.372Z,11.10
2018-06-27T07:43:25.419Z,12.55
2018-06-27T07:45:53.470Z,12.47
2018-06-27T07:48:21.808Z,12.20
2018-06-27T07:50:49.848Z,13.48
2018-06-27T07:53:17.884Z,13.10
2018-06-27T07:55:46.141Z,12.73
2018-06-27T07:58:14.234Z,12.70
2018-06-27T08:00:42.377Z,10.88
2018-06-27T08:03:10.457Z,12.43
2018-06-27T08:05:38.492Z,11.65
2018-06-27T08:08:06.574Z,12.28
2018-06-27T08:10:34.668Z,12.60
2018-06-27T08:13:02.719Z,11.73
2018-06-27T08:15:30.783Z,12.78
2018-06-27T08:17:58.928Z,13.43
2018-06-27T08:20:26.912Z,12.78
2018-06-27T08:22:54.964Z,14.33
2018-06-27T08:25:23.219Z,13.38
2018-06-27T08:27:51.331Z,13.70
2018-06-27T08:30:19.375Z,12.80
2018-06-27T08:32:47.431Z,13.68
2018-06-27T08:35:15.471Z,13.50
2018-06-27T08:37:43.526Z,13.28
2018-06-27T08:40:11.655Z,12.63
2018-06-27T08:42:39.692Z,13.83
2018-06-27T08:45:07.767Z,13.60
2018-06-27T08:47:35.816Z,15.80
2018-06-27T08:50:04.008Z,13.75
2018-06-27T08:52:32.054Z,13.90
2018-06-27T08:55:00.116Z,13.08
2018-06-27T08:57:28.166Z,12.33
2018-06-27T08:59:56.219Z,13.43
2018-06-27T09:02:24.262Z,13.25
2018-06-27T09:04:52.312Z,11.28
2018-06-27T09:07:20.375Z,13.62
2018-06-27T09:09:48.428Z,13.58
2018-06-27T09:12:16.625Z,11.68
2018-06-27T09:14:44.698Z,11.35
2018-06-27T09:17:12.844Z,12.18
2018-06-27T09:19:40.897Z,13.28
2018-06-27T09:22:08.980Z,11.60
2018-06-27T09:24:37.027Z,11.50
2018-06-27T09:27:05.140Z,10.13
2018-06-27T09:29:33.191Z,9.80
2018-06-27T09:32:01.261Z,9.08
2018-06-27T09:34:29.300Z,7.53
2018-06-27T09:36:57.324Z,6.67
2018-06-27T09:39:25.371Z,6.65
2018-06-27T09:41:53.452Z,6.37
2018-06-27T09:44:21.528Z,6.10
2018-06-27T09:46:49.581Z,6.37
2018-06-27T09:49:17.637Z,6.12
2018-06-27T09:51:45.695Z,6.50
2018-06-27T09:54:13.844Z,7.12
2018-06-27T09:56:42.125Z,6.83
2018-06-27T09:59:10.124Z,6.22
2018-06-27T10:01:38.139Z,5.50
2018-06-27T10:04:06.488Z,5.65
2018-06-27T10:06:34.538Z,5.20
2018-06-27T10:09:02.576Z,4.90
2018-06-27T10:11:30.644Z,5.45
2018-06-27T10:13:58.705Z,4.53
2018-06-27T10:16:26.800Z,5.00
2018-06-27T10:18:54.835Z,3.98
2018-06-27T10:21:22.879Z,4.83
2018-06-27T10:23:51.074Z,3.20
2018-06-27T10:26:19.112Z,3.40
2018-06-27T10:28:47.140Z,3.55
2018-06-27T10:31:15.224Z,4.30
2018-06-27T10:33:43.265Z,3.40
2018-06-27T10:36:11.346Z,4.17
2018-06-27T10:38:39.417Z,4.00
2018-06-27T10:41:07.529Z,3.92
2018-06-27T10:43:35.740Z,3.80
2018-06-27T10:46:03.820Z,4.17
2018-06-27T10:48:31.896Z,3.92
2018-06-27T10:51:00.017Z,4.58
2018-06-27T10:53:28.040Z,5.12
2018-06-27T10:55:56.343Z,4.42
2018-06-27T10:58:24.415Z,4.78
2018-06-27T11:00:52.574Z,4.10
2018-06-27T11:03:21.691Z,4.60
2018-06-27T11:05:51.896Z,4.60
2018-06-27T11:08:20.028Z,5.35
2018-06-27T11:10:48.337Z,4.70
2018-06-27T11:13:16.391Z,4.60
2018-06-27T11:15:44.468Z,4.92
2018-06-27T11:18:12.532Z,7.17
2018-06-27T11:20:40.569Z,7.42
2018-06-27T11:23:08.632Z,5.17
2018-06-27T11:25:36.696Z,5.87
2018-06-27T11:28:04.728Z,6.33
2018-06-27T11:30:32.772Z,5.37
2018-06-27T11:33:00.894Z,4.25
2018-06-27T11:35:29.069Z,3.62
2018-06-27T11:37:57.092Z,3.80
2018-06-27T11:40:25.146Z,2.85
2018-06-27T11:42:53.235Z,2.95
2018-06-27T11:45:21.271Z,3.90
2018-06-27T11:47:49.312Z,3.83
2018-06-27T11:50:17.356Z,3.25
2018-06-27T11:52:45.400Z,3.27
2018-06-27T11:55:13.733Z,3.22
2018-06-27T11:57:43.384Z,3.75
2018-06-27T12:00:11.463Z,3.45
2018-06-27T12:02:39.856Z,3.50
2018-06-27T12:05:08.948Z,3.50
2018-06-27T12:07:37.007Z,4.28
2018-06-27T12:10:05.303Z,3.55
2018-06-27T12:12:33.367Z,4.15
2018-06-27T12:15:01.457Z,4.00
2018-06-27T12:17:29.511Z,3.85
2018-06-27T12:19:57.656Z,4.30
2018-06-27T12:22:25.699Z,3.50
2018-06-27T12:24:53.735Z,4.35
2018-06-27T12:27:21.787Z,4.72
2018-06-27T12:29:49.840Z,4.33
2018-06-27T12:32:17.886Z,4.42
2018-06-27T12:34:45.916Z,5.03
2018-06-27T12:37:13.950Z,5.15
2018-06-27T12:39:41.996Z,5.35
2018-06-27T12:42:10.027Z,4.35
2018-06-27T12:44:38.729Z,4.45
2018-06-27T12:47:06.759Z,4.20
2018-06-27T12:49:34.812Z,4.12
2018-06-27T12:52:02.936Z,4.40
2018-06-27T12:54:30.987Z,3.70
2018-06-27T12:56:59.024Z,3.87
2018-06-27T12:59:27.668Z,2.92
2018-06-27T13:01:55.708Z,2.90
2018-06-27T13:04:23.800Z,3.10
2018-06-27T13:06:51.844Z,2.80
2018-06-27T13:09:19.984Z,2.42
2018-06-27T13:11:47.936Z,2.47
2018-06-27T13:14:15.991Z,2.08
2018-06-27T13:16:44.032Z,2.25
2018-06-27T13:19:12.076Z,1.80
2018-06-27T13:21:40.396Z,2.15
2018-06-27T13:24:08.432Z,1.87
2018-06-27T13:26:36.492Z,2.30
2018-06-27T13:29:04.666Z,2.17
2018-06-27T13:31:32.704Z,2.25
2018-06-27T13:34:01.023Z,2.12
2018-06-27T13:36:29.109Z,1.67
2018-06-27T13:38:57.168Z,2.27
2018-06-27T13:41:25.248Z,2.40
2018-06-27T13:43:53.402Z,1.57
2018-06-27T13:46:21.460Z,2.00
2018-06-27T13:48:49.485Z,2.05
2018-06-27T13:51:17.815Z,1.77
2018-06-27T13:53:45.860Z,1.40
2018-06-27T13:56:13.983Z,1.65
2018-06-27T13:58:42.106Z,1.70
2018-06-27T14:01:10.196Z,1.92
2018-06-27T14:03:38.268Z,1.45
2018-06-27T14:06:06.332Z,1.87
2018-06-27T14:08:34.372Z,1.60
2018-06-27T14:11:02.444Z,1.85
2018-06-27T14:13:30.717Z,1.40
2018-06-27T14:15:58.760Z,2.10
2018-06-27T14:18:26.804Z,1.80
2018-06-27T14:20:54.881Z,1.82
2018-06-27T14:23:22.911Z,1.92
2018-06-27T14:25:50.956Z,1.95
2018-06-27T14:28:19.111Z,1.50
2018-06-27T14:30:47.171Z,1.80
2018-06-27T14:33:15.359Z,1.37
2018-06-27T14:35:43.369Z,1.50
2018-06-27T14:38:11.573Z,2.10
2018-06-27T14:40:39.890Z,1.57
2018-06-27T14:43:08.047Z,1.57
2018-06-27T14:45:36.105Z,1.52
2018-06-27T14:48:04.339Z,1.70
2018-06-27T14:50:32.214Z,1.40
2018-06-27T14:53:00.261Z,1.92
2018-06-27T14:55:28.317Z,2.02
2018-06-27T14:57:56.365Z,1.90
2018-06-27T15:00:24.405Z,1.70
2018-06-27T15:02:52.474Z,1.42
2018-06-27T15:05:20.532Z,1.47
2018-06-27T15:07:48.600Z,1.70
2018-06-27T15:10:16.828Z,1.52
2018-06-27T15:12:44.961Z,1.50
2018-06-27T15:15:13.103Z,1.57
2018-06-27T15:17:41.284Z,2.20
2018-06-27T15:20:10.031Z,1.72
2018-06-27T15:22:38.833Z,2.10
2018-06-27T15:25:07.293Z,2.10
2018-06-27T15:27:35.411Z,2.45
2018-06-27T15:30:03.453Z,2.10
2018-06-27T15:32:31.624Z,2.20
2018-06-27T15:34:59.694Z,2.00
2018-06-27T15:37:27.708Z,2.37
2018-06-27T15:39:55.777Z,2.30
2018-06-27T15:42:23.812Z,2.30
2018-06-27T15:44:51.860Z,2.00
2018-06-27T15:47:19.904Z,1.95
2018-06-27T15:49:47.948Z,2.08
2018-06-27T15:52:15.996Z,1.90
2018-06-27T15:54:44.060Z,1.82
2018-06-27T15:57:12.227Z,2.00
2018-06-27T15:59:45.200Z,2.50
2018-06-27T16:02:13.251Z,2.70
2018-06-27T16:04:41.279Z,2.45
2018-06-27T16:07:09.300Z,2.45
2018-06-27T16:09:37.431Z,2.17
2018-06-27T16:12:05.533Z,2.40
2018-06-27T16:14:33.676Z,2.50
2018-06-27T16:17:01.959Z,2.25
2018-06-27T16:19:29.959Z,1.98
2018-06-27T16:21:58.028Z,2.47
2018-06-27T16:24:26.246Z,2.10
2018-06-27T16:26:54.274Z,2.25
2018-06-27T16:29:22.360Z,2.70
2018-06-27T16:31:50.416Z,2.20
2018-06-27T16:34:18.680Z,2.15
2018-06-27T16:36:46.705Z,2.45
2018-06-27T16:39:14.881Z,2.22
2018-06-27T16:41:43.234Z,2.40
2018-06-27T16:44:11.896Z,2.30
2018-06-27T16:46:40.114Z,2.25
2018-06-27T16:49:09.168Z,2.20
2018-06-27T16:51:37.495Z,2.72
2018-06-27T16:54:05.779Z,2.22
2018-06-27T16:56:33.908Z,2.40
2018-06-27T16:59:02.132Z,2.00
2018-06-27T17:01:30.414Z,2.02
2018-06-27T17:03:58.560Z,2.52
2018-06-27T17:06:26.590Z,2.90
2018-06-27T17:08:54.628Z,2.60
2018-06-27T17:11:22.867Z,2.37
2018-06-27T17:13:50.900Z,2.00
2018-06-27T17:16:18.996Z,2.30
2018-06-27T17:18:47.170Z,2.42
2018-06-27T17:21:15.471Z,2.40
2018-06-27T17:23:43.657Z,2.50
2018-06-27T17:26:11.869Z,2.08
2018-06-27T17:28:39.976Z,2.30
2018-06-27T17:31:08.316Z,2.20
2018-06-27T17:33:36.352Z,2.58
2018-06-27T17:36:04.408Z,2.30
2018-06-27T17:38:32.600Z,2.55
2018-06-27T17:41:00.712Z,2.95
2018-06-27T17:43:28.784Z,2.50
2018-06-27T17:45:56.857Z,2.25
2018-06-27T17:48:24.908Z,2.40
2018-06-27T17:50:52.929Z,2.05
2018-06-27T17:53:20.992Z,2.10
2018-06-27T17:55:49.027Z,2.45
2018-06-27T17:58:17.102Z,2.35
2018-06-27T18:00:45.135Z,2.20
2018-06-27T18:03:13.188Z,2.30
2018-06-27T18:05:41.236Z,2.30
2018-06-27T18:08:09.300Z,2.72
2018-06-27T18:10:37.311Z,2.20
2018-06-27T18:13:05.356Z,2.10
2018-06-27T18:15:33.387Z,2.30
2018-06-27T18:18:01.425Z,2.52
2018-06-27T18:20:29.475Z,2.25
2018-06-27T18:22:57.504Z,2.15
2018-06-27T18:25:25.575Z,2.22
2018-06-27T18:27:53.628Z,2.15
2018-06-27T18:30:21.672Z,1.92
2018-06-27T18:32:49.727Z,2.02
2018-06-27T18:35:17.788Z,2.25
2018-06-27T18:37:45.819Z,2.27
2018-06-27T18:40:13.881Z,2.20
2018-06-27T18:42:41.903Z,2.20
2018-06-27T18:45:09.993Z,2.30
2018-06-27T18:47:38.074Z,2.70
2018-06-27T18:50:06.135Z,2.33
2018-06-27T18:52:34.167Z,2.50
2018-06-27T18:55:02.275Z,2.70
2018-06-27T18:57:30.311Z,2.40
2018-06-27T18:59:58.359Z,3.08
2018-06-27T19:02:26.388Z,2.40
2018-06-27T19:04:54.464Z,2.50
2018-06-27T19:07:22.520Z,1.98
2018-06-27T19:09:50.597Z,2.02
2018-06-27T19:12:18.768Z,2.40
2018-06-27T19:14:47.021Z,2.50
2018-06-27T19:17:15.252Z,2.35
2018-06-27T19:19:43.527Z,2.40
2018-06-27T19:22:11.730Z,2.50
2018-06-27T19:24:39.771Z,2.20
2018-06-27T19:27:07.961Z,2.37
2018-06-27T19:29:35.994Z,2.40
2018-06-27T19:32:04.003Z,2.45
2018-06-27T19:34:32.076Z,2.30
2018-06-27T19:37:00.378Z,2.58
2018-06-27T19:39:37.465Z,2.77
2018-06-27T19:41:56.561Z,2.02
2018-06-27T19:44:24.616Z,2.40
2018-06-27T19:46:52.712Z,2.35
2018-06-27T19:49:20.903Z,2.33
2018-06-27T19:51:49.114Z,2.30
2018-06-27T19:54:17.179Z,2.60
2018-06-27T19:56:45.292Z,2.40
2018-06-27T19:59:13.339Z,2.17
2018-06-27T20:01:41.420Z,2.27
2018-06-27T20:04:21.921Z,2.22
2018-06-27T20:06:49.909Z,2.45
2018-06-27T20:09:18.060Z,2.33
2018-06-27T20:11:46.112Z,2.37
2018-06-27T20:14:14.232Z,2.35
2018-06-27T20:16:42.334Z,2.12
2018-06-27T20:19:10.414Z,2.12
2018-06-27T20:21:38.430Z,2.60
2018-06-27T20:24:06.444Z,2.30
2018-06-27T20:26:34.590Z,2.20
2018-06-27T20:29:02.641Z,2.42
2018-06-27T20:31:30.700Z,2.37
2018-06-27T20:33:58.745Z,3.30
2018-06-27T20:36:26.804Z,3.00
2018-06-27T20:38:54.877Z,2.52
2018-06-27T20:41:22.920Z,2.60
2018-06-27T20:43:50.964Z,2.87
2018-06-27T20:46:19.019Z,2.80
2018-06-27T20:48:47.221Z,3.00
2018-06-27T20:51:15.300Z,3.45
2018-06-27T20:53:43.564Z,4.72
2018-06-27T20:56:11.611Z,5.35
2018-06-27T20:58:39.704Z,5.17
2018-06-27T21:01:07.800Z,4.53
2018-06-27T21:03:35.840Z,4.40
2018-06-27T21:06:03.916Z,3.95
2018-06-27T21:08:31.991Z,3.98
2018-06-27T21:11:00.053Z,3.98
2018-06-27T21:13:28.143Z,3.62
2018-06-27T21:15:56.234Z,3.55
2018-06-27T21:18:24.297Z,3.20
2018-06-27T21:23:26.732Z,3.58
2018-06-27T21:25:54.841Z,3.02
2018-06-27T21:28:22.852Z,3.22
2018-06-27T21:30:51.708Z,3.10
2018-06-27T21:33:19.779Z,3.42
2018-06-27T21:35:47.828Z,3.70
2018-06-27T21:38:16.089Z,4.17
2018-06-27T21:40:44.221Z,3.37
2018-06-27T21:43:12.308Z,3.42
2018-06-27T21:45:40.484Z,3.50
2018-06-27T21:48:08.667Z,4.27
2018-06-27T21:50:36.769Z,3.90
2018-06-27T21:53:05.509Z,3.87
2018-06-27T21:55:33.600Z,4.70
2018-06-27T21:58:01.664Z,4.63
2018-06-27T22:00:31.895Z,4.23
2018-06-27T22:03:00.489Z,3.37
2018-06-27T22:05:28.532Z,3.70
2018-06-27T22:07:56.571Z,3.70
2018-06-27T22:10:24.686Z,3.70
2018-06-27T22:12:52.917Z,3.70
2018-06-27T22:15:20.996Z,3.53
2018-06-27T22:17:49.045Z,3.73
2018-06-27T22:20:17.144Z,3.47
2018-06-27T22:22:45.299Z,3.70
2018-06-27T22:25:13.439Z,3.70
2018-06-27T22:27:41.580Z,3.30
2018-06-27T22:30:09.781Z,3.67
2018-06-27T22:32:37.854Z,3.40
2018-06-27T22:35:05.953Z,3.47
2018-06-27T22:37:34.096Z,3.23
2018-06-27T22:40:02.232Z,3.67
2018-06-27T22:42:30.321Z,3.83
2018-06-27T22:44:58.375Z,4.20
2018-06-27T22:47:26.399Z,3.47
2018-06-27T22:49:54.455Z,3.97
2018-06-27T22:52:22.496Z,3.57
2018-06-27T22:54:50.548Z,4.00
2018-06-27T22:57:18.601Z,3.00
2018-06-27T22:59:46.669Z,3.67
2018-06-27T23:02:14.740Z,5.17
2018-06-27T23:04:42.841Z,3.47
2018-06-27T23:07:10.935Z,3.70
2018-06-27T23:09:38.998Z,3.50
2018-06-27T23:12:07.087Z,4.00
2018-06-27T23:14:35.123Z,3.97
2018-06-27T23:17:03.172Z,3.57
2018-06-27T23:19:31.220Z,3.37
2018-06-27T23:21:59.265Z,3.40
2018-06-27T23:24:27.403Z,3.50
2018-06-27T23:26:55.449Z,3.60
2018-06-27T23:29:23.493Z,3.50
2018-06-27T23:31:51.524Z,3.80
2018-06-27T23:34:19.573Z,3.90
2018-06-27T23:36:47.638Z,3.70
2018-06-27T23:39:15.720Z,4.00
2018-06-27T23:41:44.460Z,4.03
2018-06-27T23:44:12.601Z,3.53
2018-06-27T23:46:40.676Z,3.57
2018-06-27T23:49:08.801Z,3.57
2018-06-27T23:51:36.938Z,3.60
2018-06-27T23:54:05.363Z,3.93
2018-06-27T23:56:33.463Z,3.67
2018-06-27T23:59:01.540Z,3.77
